ETNL

Rostock-Laage Airport

Rostock, Germany
METAR ETNL 181420Z 06010KT 1200 R09/2300U -SN BR VV004 00/M00 Q0980 BLACKAMB YLO TEMPO RED
Observed Flight Rules
Jan-18 @ 14:20 UTC (an hour ago) Instrument Flight Rules
Wind Visibility Clouds Conditions
60° at 10 knots 1,207 meters
  • Vertical visibility at 400' AGL
  • Light Snow
  • Mist
Temperatures Readings
Current 0°C / 32°F
Dewpoint 0°C / 32°F
Humidity 100%
Altimeter 28.94" Hg
Pressure 980 hPa
Elevation 40
METAR ETNL 181420Z 06010KT 1200 R09/2300U -SN BR VV004 00/M00 Q0980 BLACKAMB YLO TEMPO RED
Observed Flight Rules
Jan-18 @ 14:20 UTC
(an hour ago)
LIFR
Wind Visibility
60° at 10 knots 1,207 meters
Clouds
  • Vertical visibility at 400' AGL
Conditions
  • Light Snow
  • Mist
Temperature Dewpoint
0°C / 32°F 0°C / 32°F
Humidity Altimeter Pressure
100% 28.94" Hg 980 hPa